Time;durP1;ratioP1;P1;durP2;ratioP2;P2;SDS_P1;SDS_P2;PMS_P1;PMS_P2;Temp;Humidity;BMP_temperature;BMP_pressure;BME280_temperature;BME280_humidity;BME280_pressure;Samples;Min_cycle;Max_cycle;Signal;HPM_P1;HPM_P2
2021/12/04 00:01:06;;;;;;;48.00;25.85;;;;;;;;;;5071020;28;20045;-78
2021/12/04 00:03:32;;;;;;;57.85;30.00;;;;;;;;;;5070975;28;20509;-79
2021/12/04 00:06:03;;;;;;;54.47;30.67;;;;;;;;;;5071460;28;20044;-78
2021/12/04 00:08:33;;;;;;;55.92;29.90;;;;;;;;;;5071185;28;20042;-77
2021/12/04 00:10:59;;;;;;;56.63;29.10;;;;;;;;;;5070981;28;20059;-76
2021/12/04 00:13:25;;;;;;;60.25;31.20;;;;;;;;;;5071629;28;20052;-76
2021/12/04 00:15:51;;;;;;;66.35;31.52;;;;;;;;;;5054730;28;20055;-79
2021/12/04 00:18:17;;;;;;;62.47;31.35;;;;;;;;;;5054595;28;20044;-80
2021/12/04 00:20:43;;;;;;;55.15;28.42;;;;;;;;;;5071286;28;20036;-79
2021/12/04 00:23:09;;;;;;;52.60;29.60;;;;;;;;;;5054218;28;20060;-78
2021/12/04 00:25:38;;;;;;;66.72;33.47;;;;;;;;;;5071207;28;20045;-77
2021/12/04 00:28:05;;;;;;;59.72;31.75;;;;;;;;;;5054189;28;20044;-79
2021/12/04 00:30:31;;;;;;;68.07;33.30;;;;;;;;;;5071080;28;20493;-78
2021/12/04 00:33:00;;;;;;;63.45;33.40;;;;;;;;;;5070966;28;20119;-79
2021/12/04 00:51:38;;;;;;;80.55;38.00;;;;;;;;;;5071003;28;20056;-78
2021/12/04 00:54:05;;;;;;;78.95;37.42;;;;;;;;;;5070423;28;20052;-78
2021/12/04 00:56:32;;;;;;;75.03;36.78;;;;;;;;;;5071024;28;20037;-78
2021/12/04 00:58:58;;;;;;;76.28;37.53;;;;;;;;;;5070834;28;20052;-78
2021/12/04 01:01:24;;;;;;;96.32;41.58;;;;;;;;;;5070976;28;20128;-78
2021/12/04 01:03:51;;;;;;;82.20;36.92;;;;;;;;;;5071676;28;20045;-78
2021/12/04 01:06:17;;;;;;;82.55;41.70;;;;;;;;;;5070519;28;20037;-78
2021/12/04 01:08:43;;;;;;;87.93;38.45;;;;;;;;;;5054177;28;20123;-78
2021/12/04 01:11:09;;;;;;;85.80;39.15;;;;;;;;;;5070433;28;20075;-78
2021/12/04 01:13:35;;;;;;;89.35;38.53;;;;;;;;;;5070516;28;20041;-78
2021/12/04 01:16:01;;;;;;;79.70;36.05;;;;;;;;;;5070256;28;20037;-77
2021/12/04 01:18:27;;;;;;;87.50;38.50;;;;;;;;;;5071168;28;20097;-78
2021/12/04 01:20:53;;;;;;;96.30;40.92;;;;;;;;;;5053731;28;20041;-77
2021/12/04 01:23:19;;;;;;;84.35;37.33;;;;;;;;;;5070458;28;20501;-78
2021/12/04 01:25:46;;;;;;;98.40;41.70;;;;;;;;;;5053645;28;20057;-78
2021/12/04 01:28:12;;;;;;;107.50;44.80;;;;;;;;;;5069802;28;20045;-78
2021/12/04 01:30:38;;;;;;;88.68;38.85;;;;;;;;;;5053931;28;20432;-79
2021/12/04 01:33:04;;;;;;;110.78;43.63;;;;;;;;;;5070050;28;20409;-79
2021/12/04 01:35:30;;;;;;;80.47;35.92;;;;;;;;;;5070490;28;20456;-78
2021/12/04 01:37:57;;;;;;;98.00;39.22;;;;;;;;;;5070571;28;20440;-78
2021/12/04 01:40:23;;;;;;;117.80;42.22;;;;;;;;;;5070296;28;20516;-79
2021/12/04 01:42:49;;;;;;;95.35;39.00;;;;;;;;;;5070280;28;20055;-79
2021/12/04 01:45:17;;;;;;;80.15;36.67;;;;;;;;;;5070306;28;20136;-78
2021/12/04 01:47:43;;;;;;;111.65;44.67;;;;;;;;;;5070237;28;20049;-78
2021/12/04 01:50:10;;;;;;;86.03;37.58;;;;;;;;;;5055987;28;20057;-78
2021/12/04 01:52:36;;;;;;;148.52;55.92;;;;;;;;;;5074070;28;20041;-79
2021/12/04 01:55:03;;;;;;;110.63;42.47;;;;;;;;;;5073543;28;20123;-79
2021/12/04 01:57:29;;;;;;;86.47;35.75;;;;;;;;;;5074164;28;20128;-79
2021/12/04 01:59:55;;;;;;;103.20;41.53;;;;;;;;;;5073665;28;20098;-78
2021/12/04 02:02:21;;;;;;;80.40;35.22;;;;;;;;;;5072842;28;20492;-78
2021/12/04 02:04:47;;;;;;;105.13;39.83;;;;;;;;;;5057053;28;20097;-78
2021/12/04 02:07:15;;;;;;;98.95;38.03;;;;;;;;;;5073439;28;20097;-78
2021/12/04 02:09:41;;;;;;;82.65;34.67;;;;;;;;;;5073642;28;20076;-78
2021/12/04 02:12:08;;;;;;;92.97;34.83;;;;;;;;;;5068618;28;20041;-78
2021/12/04 02:14:35;;;;;;;95.30;38.42;;;;;;;;;;5046097;28;20481;-78
2021/12/04 02:17:01;;;;;;;98.43;42.92;;;;;;;;;;5074072;28;20036;-78
2021/12/04 02:19:28;;;;;;;144.27;49.30;;;;;;;;;;5073525;28;20052;-78
2021/12/04 02:21:54;;;;;;;159.50;45.70;;;;;;;;;;5073284;28;20493;-78
2021/12/04 02:24:20;;;;;;;93.20;38.13;;;;;;;;;;5073149;28;20045;-78
2021/12/04 02:26:47;;;;;;;126.43;44.42;;;;;;;;;;5071523;28;20065;-78
2021/12/04 02:29:13;;;;;;;124.00;43.58;;;;;;;;;;5041789;28;20098;-78
2021/12/04 02:31:39;;;;;;;83.20;33.30;;;;;;;;;;5073231;28;20094;-78
2021/12/04 02:34:06;;;;;;;97.95;37.47;;;;;;;;;;5072672;28;20132;-78
2021/12/04 02:36:32;;;;;;;111.80;38.60;;;;;;;;;;5073261;28;20045;-78
2021/12/04 02:38:58;;;;;;;102.32;37.60;;;;;;;;;;5056193;28;20113;-78
2021/12/04 02:41:25;;;;;;;93.03;35.80;;;;;;;;;;5073125;28;20447;-79
2021/12/04 02:43:51;;;;;;;96.35;36.38;;;;;;;;;;5072630;28;20044;-79
2021/12/04 02:46:17;;;;;;;103.43;37.70;;;;;;;;;;5072713;28;20041;-79
2021/12/04 02:48:45;;;;;;;109.40;38.67;;;;;;;;;;5073231;28;20080;-78
2021/12/04 02:51:11;;;;;;;102.57;41.75;;;;;;;;;;5072666;28;20047;-78
2021/12/04 02:53:38;;;;;;;113.13;41.72;;;;;;;;;;5072917;28;20047;-78
2021/12/04 02:56:05;;;;;;;101.38;42.78;;;;;;;;;;5072308;28;20123;-78
2021/12/04 02:58:35;;;;;;;117.65;43.85;;;;;;;;;;5056022;28;20036;-78
2021/12/04 03:01:02;;;;;;;85.10;34.30;;;;;;;;;;5071752;28;20037;-78
2021/12/04 03:03:30;;;;;;;87.82;34.90;;;;;;;;;;5072717;28;20052;-78
2021/12/04 03:05:56;;;;;;;88.05;35.67;;;;;;;;;;5072566;28;20424;-78
2021/12/04 03:08:23;;;;;;;92.95;37.10;;;;;;;;;;5072294;28;20052;-79
2021/12/04 03:10:49;;;;;;;89.97;37.00;;;;;;;;;;5055682;28;20047;-78
2021/12/04 03:13:19;;;;;;;87.97;34.67;;;;;;;;;;5071895;28;20040;-77
2021/12/04 03:15:48;;;;;;;85.00;34.70;;;;;;;;;;5072396;28;20115;-77
2021/12/04 03:18:14;;;;;;;95.78;37.33;;;;;;;;;;5071963;28;20044;-78
2021/12/04 03:20:43;;;;;;;114.75;43.58;;;;;;;;;;5072315;28;20047;-79
2021/12/04 03:23:16;;;;;;;94.45;39.83;;;;;;;;;;5071608;28;20052;-78
2021/12/04 03:25:46;;;;;;;100.05;38.25;;;;;;;;;;5072426;28;20124;-78
2021/12/04 03:28:15;;;;;;;97.80;37.75;;;;;;;;;;5071956;28;20636;-79
2021/12/04 03:30:47;;;;;;;85.45;36.95;;;;;;;;;;5071929;28;20045;-80
2021/12/04 03:41:14;;;;;;;70.40;28.85;;;;;;;;;;5071743;28;20037;-79
2021/12/04 03:43:40;;;;;;;71.35;28.92;;;;;;;;;;5055258;28;20099;-79
2021/12/04 03:46:09;;;;;;;90.22;35.10;;;;;;;;;;5071003;28;20044;-79
2021/12/04 03:51:05;;;;;;;71.75;29.88;;;;;;;;;;5071403;28;20056;-79
2021/12/04 03:53:31;;;;;;;104.40;40.17;;;;;;;;;;5071638;28;20076;-79
2021/12/04 03:55:57;;;;;;;81.95;33.05;;;;;;;;;;5071541;28;20040;-79
2021/12/04 03:58:24;;;;;;;72.75;29.95;;;;;;;;;;5071689;28;20041;-79
2021/12/04 04:00:50;;;;;;;111.22;37.53;;;;;;;;;;5071289;28;20101;-79
2021/12/04 04:03:16;;;;;;;83.55;32.70;;;;;;;;;;5071681;28;20454;-78
2021/12/04 04:05:42;;;;;;;78.63;30.77;;;;;;;;;;5071792;28;20504;-79
2021/12/04 04:08:11;;;;;;;85.95;34.97;;;;;;;;;;5070949;28;20386;-79
2021/12/04 04:10:37;;;;;;;79.97;33.15;;;;;;;;;;5071290;28;20409;-79
2021/12/04 04:13:07;;;;;;;103.57;37.72;;;;;;;;;;5053678;28;20043;-79
2021/12/04 04:15:33;;;;;;;93.35;36.78;;;;;;;;;;5071649;28;20040;-79
2021/12/04 04:17:59;;;;;;;65.43;29.65;;;;;;;;;;5070459;28;20037;-78
2021/12/04 04:20:26;;;;;;;69.20;28.25;;;;;;;;;;5071363;28;20098;-79
2021/12/04 04:22:52;;;;;;;64.95;29.05;;;;;;;;;;5070993;28;20691;-78
2021/12/04 04:25:18;;;;;;;55.38;27.08;;;;;;;;;;5071366;28;20056;-78
2021/12/04 04:27:44;;;;;;;58.13;27.73;;;;;;;;;;5071129;28;20170;-78
2021/12/04 04:30:15;;;;;;;84.93;32.00;;;;;;;;;;5070734;28;20110;-78
2021/12/04 04:32:42;;;;;;;70.75;28.45;;;;;;;;;;5071731;28;20047;-79
2021/12/04 04:35:10;;;;;;;69.53;28.40;;;;;;;;;;5070706;28;20540;-78
2021/12/04 04:59:38;;;;;;;56.28;24.08;;;;;;;;;;5070618;28;20039;-77
2021/12/04 05:15:21;;;;;;;66.20;26.52;;;;;;;;;;5070280;28;20037;-77
2021/12/04 05:20:21;;;;;;;65.50;27.17;;;;;;;;;;5070427;28;20056;-78
2021/12/04 05:22:47;;;;;;;68.80;25.90;;;;;;;;;;5071625;28;20189;-77
2021/12/04 05:25:13;;;;;;;74.43;29.27;;;;;;;;;;5074325;28;20101;-78
2021/12/04 05:27:39;;;;;;;75.10;29.60;;;;;;;;;;5074186;28;20114;-78
2021/12/04 05:30:06;;;;;;;79.70;31.45;;;;;;;;;;5073795;28;20056;-78
2021/12/04 05:32:32;;;;;;;79.78;29.70;;;;;;;;;;5074780;28;20043;-78
2021/12/04 05:34:58;;;;;;;69.57;27.10;;;;;;;;;;5074206;28;20067;-78
2021/12/04 05:37:24;;;;;;;96.28;33.92;;;;;;;;;;5074605;28;20090;-79
2021/12/04 05:39:50;;;;;;;70.18;27.52;;;;;;;;;;5074040;28;20040;-79
2021/12/04 05:42:16;;;;;;;75.75;28.52;;;;;;;;;;5073697;28;20040;-79
2021/12/04 05:44:44;;;;;;;75.78;29.02;;;;;;;;;;5075563;28;20040;-79
2021/12/04 05:57:34;;;;;;;77.90;29.85;;;;;;;;;;5073916;28;20110;-78
2021/12/04 06:00:00;;;;;;;99.28;34.03;;;;;;;;;;5073683;28;20393;-78
2021/12/04 06:02:26;;;;;;;68.07;28.05;;;;;;;;;;5073920;28;20044;-79
2021/12/04 06:04:52;;;;;;;96.07;32.00;;;;;;;;;;5073552;28;20045;-79
2021/12/04 06:07:18;;;;;;;117.45;36.13;;;;;;;;;;5057176;28;20405;-79
2021/12/04 06:09:44;;;;;;;79.43;29.63;;;;;;;;;;5056915;28;20036;-79
2021/12/04 06:12:10;;;;;;;85.07;32.05;;;;;;;;;;5073296;28;20119;-78
2021/12/04 06:14:36;;;;;;;86.22;30.33;;;;;;;;;;5073708;28;20078;-78
2021/12/04 06:17:02;;;;;;;74.63;29.90;;;;;;;;;;5072955;28;20032;-78
2021/12/04 06:24:59;;;;;;;92.10;33.72;;;;;;;;;;5072960;28;20044;-79
2021/12/04 06:27:25;;;;;;;125.78;38.55;;;;;;;;;;5073200;28;20436;-79
2021/12/04 06:29:51;;;;;;;90.53;32.40;;;;;;;;;;5072927;28;20051;-79
2021/12/04 06:32:19;;;;;;;92.72;33.45;;;;;;;;;;5073061;28;20037;-79
2021/12/04 06:34:45;;;;;;;104.38;34.58;;;;;;;;;;5072833;28;20040;-79
2021/12/04 06:37:11;;;;;;;79.07;28.23;;;;;;;;;;5072972;28;20033;-78
2021/12/04 06:39:37;;;;;;;87.55;32.58;;;;;;;;;;5072932;28;20048;-78
2021/12/04 06:42:03;;;;;;;97.70;33.33;;;;;;;;;;5055931;28;20106;-78
2021/12/04 06:44:29;;;;;;;111.03;34.92;;;;;;;;;;5074402;28;20507;-78
2021/12/04 06:46:56;;;;;;;94.90;33.00;;;;;;;;;;5073159;28;20037;-78
2021/12/04 06:49:26;;;;;;;85.75;30.02;;;;;;;;;;5056134;28;20063;-78
2021/12/04 06:51:56;;;;;;;59.25;26.63;;;;;;;;;;5072932;28;20551;-79
2021/12/04 06:54:26;;;;;;;76.35;30.25;;;;;;;;;;5072981;28;20406;-79
2021/12/04 06:56:52;;;;;;;67.28;29.60;;;;;;;;;;5072735;28;20036;-79
2021/12/04 06:59:29;;;;;;;75.25;30.13;;;;;;;;;;5072233;28;20080;-78
2021/12/04 07:01:55;;;;;;;92.82;33.05;;;;;;;;;;5072655;28;20471;-77
2021/12/04 07:04:21;;;;;;;79.38;29.42;;;;;;;;;;5071536;28;20087;-77
2021/12/04 07:06:50;;;;;;;89.82;30.67;;;;;;;;;;5072323;28;20044;-77
2021/12/04 07:09:16;;;;;;;75.63;30.38;;;;;;;;;;5072324;28;20044;-76
2021/12/04 07:11:42;;;;;;;74.53;26.58;;;;;;;;;;5072604;28;20036;-78
2021/12/04 07:14:08;;;;;;;80.53;28.75;;;;;;;;;;5071722;28;20048;-78
2021/12/04 07:16:34;;;;;;;78.07;30.10;;;;;;;;;;5072530;28;20481;-78
2021/12/04 07:19:00;;;;;;;68.47;26.95;;;;;;;;;;5072325;28;20075;-78
2021/12/04 07:21:27;;;;;;;78.32;29.65;;;;;;;;;;5071895;28;20045;-78
2021/12/04 07:23:53;;;;;;;86.88;32.55;;;;;;;;;;5072324;28;20090;-78
2021/12/04 07:26:19;;;;;;;77.15;29.10;;;;;;;;;;5071875;28;20136;-77
2021/12/04 07:28:46;;;;;;;88.00;32.42;;;;;;;;;;5072154;28;20084;-79
2021/12/04 07:31:12;;;;;;;56.75;24.50;;;;;;;;;;5055256;28;20048;-79
2021/12/04 07:33:38;;;;;;;71.35;26.77;;;;;;;;;;5054844;28;20037;-79
2021/12/04 07:36:05;;;;;;;77.85;27.48;;;;;;;;;;5056240;28;20085;-80
2021/12/04 07:38:31;;;;;;;66.15;26.48;;;;;;;;;;5055383;28;20045;-80
2021/12/04 07:40:59;;;;;;;70.22;27.60;;;;;;;;;;5071698;28;20535;-79
2021/12/04 07:43:27;;;;;;;60.80;23.50;;;;;;;;;;5072249;28;20413;-80
2021/12/04 07:45:53;;;;;;;112.70;35.38;;;;;;;;;;5071889;28;20110;-81
2021/12/04 07:48:19;;;;;;;63.15;24.10;;;;;;;;;;5071397;28;20055;-78
2021/12/04 07:50:45;;;;;;;55.67;22.75;;;;;;;;;;5071499;28;20059;-79
2021/12/04 07:53:11;;;;;;;62.60;26.58;;;;;;;;;;5071466;28;20040;-79
2021/12/04 07:55:37;;;;;;;69.50;27.13;;;;;;;;;;5071743;28;20052;-79
2021/12/04 07:58:03;;;;;;;69.75;28.73;;;;;;;;;;5054658;28;20102;-79
2021/12/04 08:00:30;;;;;;;85.47;31.88;;;;;;;;;;5071600;28;20101;-79
2021/12/04 08:02:56;;;;;;;65.68;27.27;;;;;;;;;;5071368;28;20123;-78
2021/12/04 08:05:22;;;;;;;81.43;30.40;;;;;;;;;;5071129;28;20044;-79
2021/12/04 08:07:49;;;;;;;87.45;29.88;;;;;;;;;;5071402;28;20392;-79
2021/12/04 08:10:17;;;;;;;75.88;27.25;;;;;;;;;;5054467;28;20127;-79
2021/12/04 08:12:43;;;;;;;114.60;35.83;;;;;;;;;;5071510;28;20102;-79
2021/12/04 08:15:10;;;;;;;70.82;25.00;;;;;;;;;;5070712;28;20083;-79
2021/12/04 08:17:37;;;;;;;77.05;25.95;;;;;;;;;;5071563;28;20569;-79
2021/12/04 08:20:05;;;;;;;76.72;27.27;;;;;;;;;;5070445;28;20123;-79
2021/12/04 08:22:31;;;;;;;81.10;29.05;;;;;;;;;;5071325;28;20382;-80
2021/12/04 08:24:57;;;;;;;84.00;26.67;;;;;;;;;;5071117;28;20097;-79
2021/12/04 08:27:23;;;;;;;75.55;28.23;;;;;;;;;;5054479;28;20518;-78
2021/12/04 08:29:51;;;;;;;76.57;27.83;;;;;;;;;;5071319;28;20451;-79
2021/12/04 08:32:17;;;;;;;65.63;25.92;;;;;;;;;;5070902;28;20067;-80
2021/12/04 08:34:43;;;;;;;84.60;27.25;;;;;;;;;;5070834;28;20040;-80
2021/12/04 08:37:09;;;;;;;69.40;25.90;;;;;;;;;;5070840;28;20045;-79
2021/12/04 08:39:35;;;;;;;71.70;28.73;;;;;;;;;;5071211;28;20040;-80
2021/12/04 08:42:01;;;;;;;63.58;27.27;;;;;;;;;;5070374;28;20056;-80
2021/12/04 08:44:29;;;;;;;69.53;27.00;;;;;;;;;;5054328;28;20049;-79
2021/12/04 08:46:55;;;;;;;70.28;25.15;;;;;;;;;;5072091;28;20099;-79
2021/12/04 08:49:21;;;;;;;62.92;25.33;;;;;;;;;;5070741;28;20127;-78
2021/12/04 08:51:47;;;;;;;72.78;24.55;;;;;;;;;;5070840;28;20539;-78
2021/12/04 08:54:13;;;;;;;68.30;25.55;;;;;;;;;;5070061;28;20045;-77
2021/12/04 08:56:39;;;;;;;61.40;23.80;;;;;;;;;;5054249;28;20592;-80
2021/12/04 08:59:07;;;;;;;56.90;25.13;;;;;;;;;;5073634;28;20134;-79
2021/12/04 09:01:34;;;;;;;75.57;27.63;;;;;;;;;;5074670;28;20041;-74
2021/12/04 09:04:04;;;;;;;52.78;21.80;;;;;;;;;;5075189;28;20125;-74
2021/12/04 09:06:30;;;;;;;70.65;24.83;;;;;;;;;;5074849;28;20051;-74
2021/12/04 09:08:57;;;;;;;55.85;22.25;;;;;;;;;;5071722;28;20564;-81
2021/12/04 09:11:26;;;;;;;54.33;22.05;;;;;;;;;;5071695;28;20044;-77
2021/12/04 09:13:54;;;;;;;70.53;25.45;;;;;;;;;;5074280;28;20036;-75
2021/12/04 09:16:21;;;;;;;61.72;24.58;;;;;;;;;;5074554;28;20066;-73
2021/12/04 09:18:47;;;;;;;47.75;20.95;;;;;;;;;;5074261;28;20041;-89
2021/12/04 09:21:13;;;;;;;53.90;24.10;;;;;;;;;;5074546;28;20037;-85
2021/12/04 09:23:44;;;;;;;71.93;24.42;;;;;;;;;;5058162;28;20037;-83
2021/12/04 09:26:16;;;;;;;61.38;23.00;;;;;;;;;;5057401;28;20049;-81
2021/12/04 09:28:50;;;;;;;56.42;21.63;;;;;;;;;;5073310;28;20051;-76
2021/12/04 09:31:37;;;;;;;55.38;22.17;;;;;;;;;;5074314;28;20040;-80
2021/12/04 10:12:30;;;;;;;53.38;20.73;;;;;;;;;;5071009;28;20058;-76
2021/12/04 10:34:05;;;;;;;39.20;17.58;;;;;;;;;;5072818;28;20263;-77
2021/12/04 10:36:38;;;;;;;36.00;16.98;;;;;;;;;;5072202;28;20048;-81
2021/12/04 10:39:05;;;;;;;35.30;18.23;;;;;;;;;;5055973;28;20044;-79
2021/12/04 10:41:40;;;;;;;39.33;17.48;;;;;;;;;;5073005;28;20055;-86
2021/12/04 10:44:25;;;;;;;45.60;17.30;;;;;;;;;;5071957;28;20041;-83
2021/12/04 10:47:04;;;;;;;42.40;18.35;;;;;;;;;;5052494;28;20037;-79
2021/12/04 10:49:37;;;;;;;35.22;16.48;;;;;;;;;;5065838;28;20166;-81
2021/12/04 10:52:21;;;;;;;34.90;15.77;;;;;;;;;;5072544;28;20032;-76
2021/12/04 10:54:53;;;;;;;36.50;15.75;;;;;;;;;;5072312;28;20051;-82
2021/12/04 10:58:05;;;;;;;28.17;14.68;;;;;;;;;;5072064;28;20068;-82
2021/12/04 11:01:04;;;;;;;28.92;14.73;;;;;;;;;;5072636;28;20589;-77
2021/12/04 11:26:11;;;;;;;37.03;17.08;;;;;;;;;;5071249;28;20564;-86
2021/12/04 11:42:28;;;;;;;28.40;15.85;;;;;;;;;;5071269;28;20041;-82
2021/12/04 11:45:04;;;;;;;30.63;14.55;;;;;;;;;;5071609;28;20041;-85
2021/12/04 11:47:40;;;;;;;30.00;15.30;;;;;;;;;;5072092;28;20527;-84
2021/12/04 11:50:18;;;;;;;27.02;14.52;;;;;;;;;;5071561;28;20044;-85
2021/12/04 11:52:48;;;;;;;35.70;16.20;;;;;;;;;;5071482;28;20127;-81
2021/12/04 11:55:16;;;;;;;30.27;15.07;;;;;;;;;;5051789;28;20041;-86
2021/12/04 11:57:42;;;;;;;56.65;34.17;;;;;;;;;;5053294;28;20055;-86
2021/12/04 12:00:20;;;;;;;155.68;99.57;;;;;;;;;;5054185;28;20500;-83
2021/12/04 12:02:47;;;;;;;39.63;21.67;;;;;;;;;;5071263;28;20048;-83
2021/12/04 12:05:21;;;;;;;31.42;15.32;;;;;;;;;;5071457;28;20098;-79
2021/12/04 12:07:56;;;;;;;32.28;15.77;;;;;;;;;;5053665;28;20052;-80
2021/12/04 12:10:25;;;;;;;26.77;14.55;;;;;;;;;;5071015;28;20040;-82
2021/12/04 12:12:52;;;;;;;24.58;13.52;;;;;;;;;;5071011;28;20144;-84
2021/12/04 12:15:20;;;;;;;29.83;14.93;;;;;;;;;;5072367;28;20048;-80
2021/12/04 12:17:46;;;;;;;30.88;16.23;;;;;;;;;;5036685;28;20041;-79
2021/12/04 12:20:19;;;;;;;27.08;15.15;;;;;;;;;;5070773;28;20555;-80
2021/12/04 12:25:24;;;;;;;33.78;15.13;;;;;;;;;;5070907;28;20041;-82
2021/12/04 12:31:47;;;;;;;25.80;12.68;;;;;;;;;;5071204;28;20401;-83
2021/12/04 12:36:12;;;;;;;29.42;14.15;;;;;;;;;;5070240;28;20493;-82
2021/12/04 12:38:57;;;;;;;24.52;13.75;;;;;;;;;;5070568;28;20043;-79
2021/12/04 12:41:29;;;;;;;26.67;13.73;;;;;;;;;;5057982;28;20600;-80
2021/12/04 12:43:59;;;;;;;29.75;15.18;;;;;;;;;;5070416;28;20036;-77
2021/12/04 12:46:37;;;;;;;27.77;14.05;;;;;;;;;;5043641;28;20443;-82
2021/12/04 12:49:04;;;;;;;29.95;15.80;;;;;;;;;;5070049;28;20037;-82
2021/12/04 12:51:35;;;;;;;24.50;13.43;;;;;;;;;;5050665;28;20037;-80
2021/12/04 12:54:05;;;;;;;27.83;15.25;;;;;;;;;;5044298;28;20489;-81
2021/12/04 12:56:33;;;;;;;29.00;15.75;;;;;;;;;;5070950;28;20049;-77
2021/12/04 12:59:09;;;;;;;28.10;13.80;;;;;;;;;;5053558;28;20041;-81
2021/12/04 13:12:51;;;;;;;30.27;15.23;;;;;;;;;;5070672;28;20062;-82
2021/12/04 13:15:37;;;;;;;31.35;14.85;;;;;;;;;;5070697;28;20076;-81
2021/12/04 13:18:16;;;;;;;30.63;15.40;;;;;;;;;;5070545;28;20029;-82
2021/12/04 13:20:44;;;;;;;26.92;14.70;;;;;;;;;;5069832;28;20101;-81
2021/12/04 13:23:14;;;;;;;27.50;13.75;;;;;;;;;;5050480;28;20045;-83
2021/12/04 13:25:49;;;;;;;32.20;15.45;;;;;;;;;;5034667;28;20123;-82
2021/12/04 13:28:20;;;;;;;32.05;15.73;;;;;;;;;;5064897;28;20047;-82
2021/12/04 13:30:46;;;;;;;26.50;14.40;;;;;;;;;;5070485;28;20050;-82
2021/12/04 13:33:12;;;;;;;27.63;14.75;;;;;;;;;;5053932;28;20036;-81
2021/12/04 13:35:38;;;;;;;30.48;16.50;;;;;;;;;;5054169;28;20033;-81
2021/12/04 13:38:05;;;;;;;33.83;16.08;;;;;;;;;;5069622;28;20033;-81
2021/12/04 13:40:31;;;;;;;31.45;16.90;;;;;;;;;;5069103;28;20037;-80
2021/12/04 13:42:57;;;;;;;31.92;17.23;;;;;;;;;;5049946;28;20049;-79
2021/12/04 13:45:24;;;;;;;32.70;16.85;;;;;;;;;;5070878;28;20090;-74
2021/12/04 13:47:52;;;;;;;29.30;15.45;;;;;;;;;;5073854;28;20119;-80
2021/12/04 13:51:06;;;;;;;27.30;15.52;;;;;;;;;;5074001;28;20048;-80
2021/12/04 13:53:08;;;;;;;26.23;13.88;;;;;;;;;;5066714;28;20044;-80
2021/12/04 13:55:39;;;;;;;28.98;15.27;;;;;;;;;;5073839;28;20532;-80
2021/12/04 13:58:05;;;;;;;28.98;17.25;;;;;;;;;;5073642;28;20040;-80
2021/12/04 14:00:31;;;;;;;29.05;15.50;;;;;;;;;;5073301;28;20102;-80
2021/12/04 14:02:57;;;;;;;25.00;14.98;;;;;;;;;;5073641;28;20040;-80
2021/12/04 14:05:24;;;;;;;24.67;14.90;;;;;;;;;;5057229;28;20128;-79
2021/12/04 14:07:53;;;;;;;27.63;14.80;;;;;;;;;;5072918;28;20117;-81
2021/12/04 14:10:25;;;;;;;25.90;13.57;;;;;;;;;;5068054;28;20422;-81
2021/12/04 14:12:52;;;;;;;25.75;13.60;;;;;;;;;;5043593;28;20036;-79
2021/12/04 14:15:19;;;;;;;28.45;14.65;;;;;;;;;;5059237;28;20040;-83
2021/12/04 14:17:46;;;;;;;22.35;13.18;;;;;;;;;;5053731;28;20033;-80
2021/12/04 14:20:19;;;;;;;24.90;12.98;;;;;;;;;;5036783;28;20041;-80
2021/12/04 14:22:50;;;;;;;25.30;12.77;;;;;;;;;;5073430;28;20067;-81
2021/12/04 14:25:17;;;;;;;26.73;14.32;;;;;;;;;;5073303;28;20084;-81
2021/12/04 14:27:47;;;;;;;24.65;14.13;;;;;;;;;;5059461;28;20057;-81
2021/12/04 14:30:18;;;;;;;28.70;14.30;;;;;;;;;;5060007;28;20036;-81
2021/12/04 14:32:50;;;;;;;30.30;15.27;;;;;;;;;;5067775;28;20041;-81
2021/12/04 14:35:17;;;;;;;23.10;13.48;;;;;;;;;;5069678;28;20048;-81
2021/12/04 14:37:45;;;;;;;31.80;15.68;;;;;;;;;;5054127;28;20477;-81
2021/12/04 14:40:13;;;;;;;32.90;15.93;;;;;;;;;;5069712;28;20113;-81
2021/12/04 14:42:40;;;;;;;28.25;14.38;;;;;;;;;;5053362;28;20053;-82
2021/12/04 14:45:08;;;;;;;26.95;13.68;;;;;;;;;;5069531;28;20538;-81
2021/12/04 14:47:37;;;;;;;32.42;15.02;;;;;;;;;;5070635;28;20047;-82
2021/12/04 14:50:05;;;;;;;31.50;16.27;;;;;;;;;;5068856;28;20079;-81
2021/12/04 14:52:32;;;;;;;30.35;15.90;;;;;;;;;;5070210;28;20505;-81
2021/12/04 14:54:58;;;;;;;28.60;15.57;;;;;;;;;;5069286;28;20041;-81
2021/12/04 14:57:26;;;;;;;27.80;15.05;;;;;;;;;;5060995;28;20033;-81
2021/12/04 15:00:06;;;;;;;37.08;16.52;;;;;;;;;;5049777;28;20057;-80
2021/12/04 15:02:32;;;;;;;34.65;16.58;;;;;;;;;;5049889;28;20041;-80
2021/12/04 15:04:58;;;;;;;39.72;17.15;;;;;;;;;;5054002;28;20493;-80
2021/12/04 15:07:28;;;;;;;36.60;15.27;;;;;;;;;;5053787;28;20052;-80
2021/12/04 15:09:54;;;;;;;33.63;17.50;;;;;;;;;;5052015;28;20051;-80
2021/12/04 15:12:27;;;;;;;34.40;17.27;;;;;;;;;;5050050;28;20079;-81
2021/12/04 15:14:58;;;;;;;36.38;17.38;;;;;;;;;;5049231;28;20393;-82
2021/12/04 15:17:25;;;;;;;38.33;17.95;;;;;;;;;;5075108;28;20481;-82
2021/12/04 15:19:54;;;;;;;42.88;18.30;;;;;;;;;;5071510;28;20039;-82
2021/12/04 15:22:27;;;;;;;39.47;18.10;;;;;;;;;;5073014;28;20044;-83
2021/12/04 15:24:55;;;;;;;32.13;16.23;;;;;;;;;;5072052;28;20399;-82
2021/12/04 15:27:24;;;;;;;32.15;17.17;;;;;;;;;;5072524;28;20412;-83
2021/12/04 15:29:51;;;;;;;38.78;18.65;;;;;;;;;;5073083;28;20083;-83
2021/12/04 15:32:22;;;;;;;32.65;16.23;;;;;;;;;;5072032;28;20431;-84
2021/12/04 15:34:58;;;;;;;40.85;18.98;;;;;;;;;;5085739;28;20050;-83
2021/12/04 15:37:27;;;;;;;36.53;17.13;;;;;;;;;;5059083;28;20461;-83
2021/12/04 15:39:54;;;;;;;37.88;18.13;;;;;;;;;;5050928;28;20041;-82
2021/12/04 15:42:29;;;;;;;30.92;16.77;;;;;;;;;;5071561;28;20059;-79
2021/12/04 15:45:29;;;;;;;38.63;19.02;;;;;;;;;;5056362;28;20379;-84
2021/12/04 15:53:17;;;;;;;34.90;16.90;;;;;;;;;;5071574;28;20123;-84
2021/12/04 15:55:49;;;;;;;32.38;16.95;;;;;;;;;;5071325;28;20048;-84
2021/12/04 15:58:17;;;;;;;34.83;17.80;;;;;;;;;;5071378;28;20508;-86
2021/12/04 16:00:45;;;;;;;43.25;20.17;;;;;;;;;;5071884;28;20036;-83
2021/12/04 16:03:34;;;;;;;41.70;19.25;;;;;;;;;;5070428;28;20467;-82
2021/12/04 16:06:01;;;;;;;36.28;18.38;;;;;;;;;;5070002;28;20369;-84
2021/12/04 16:08:29;;;;;;;37.83;18.35;;;;;;;;;;5069475;28;20045;-84
2021/12/04 16:10:55;;;;;;;36.38;17.27;;;;;;;;;;5071177;28;20044;-82
2021/12/04 16:13:27;;;;;;;46.42;20.75;;;;;;;;;;5071508;28;20119;-83
2021/12/04 16:15:54;;;;;;;39.70;16.88;;;;;;;;;;5053979;28;20504;-83
2021/12/04 16:18:20;;;;;;;31.80;15.50;;;;;;;;;;5072518;28;20085;-83
2021/12/04 16:20:46;;;;;;;42.80;19.20;;;;;;;;;;5073114;28;20055;-81
2021/12/04 16:23:14;;;;;;;34.00;17.38;;;;;;;;;;5090312;28;20048;-81
2021/12/04 16:25:43;;;;;;;36.75;18.83;;;;;;;;;;5070961;28;20106;-80
2021/12/04 16:28:34;;;;;;;39.80;18.63;;;;;;;;;;5070531;28;20059;-80
2021/12/04 16:39:31;;;;;;;36.33;17.60;;;;;;;;;;5073825;28;20123;-81
2021/12/04 16:41:57;;;;;;;37.05;17.60;;;;;;;;;;5070276;28;20045;-79
2021/12/04 16:44:24;;;;;;;36.33;17.98;;;;;;;;;;5066986;28;20127;-75
2021/12/04 16:46:50;;;;;;;33.00;17.08;;;;;;;;;;5070313;28;20128;-79
2021/12/04 16:49:17;;;;;;;30.15;14.70;;;;;;;;;;5069245;28;20041;-74
2021/12/04 16:59:39;;;;;;;26.52;15.15;;;;;;;;;;5069471;28;20044;-77
2021/12/04 17:02:06;;;;;;;28.00;15.38;;;;;;;;;;5070088;28;20063;-80
2021/12/04 17:04:34;;;;;;;25.45;13.93;;;;;;;;;;5053226;28;20132;-75
2021/12/04 17:07:01;;;;;;;26.42;14.43;;;;;;;;;;5068800;28;20052;-76
2021/12/04 17:09:28;;;;;;;25.77;14.70;;;;;;;;;;5069232;28;20098;-77
2021/12/04 17:11:56;;;;;;;24.10;14.13;;;;;;;;;;5069704;28;20102;-76
2021/12/04 17:14:25;;;;;;;25.42;14.88;;;;;;;;;;5069878;28;20392;-80
2021/12/04 17:16:52;;;;;;;29.02;15.38;;;;;;;;;;5070075;28;20094;-79
2021/12/04 17:19:19;;;;;;;28.30;15.85;;;;;;;;;;5053956;28;20059;-79
2021/12/04 17:21:49;;;;;;;27.65;14.27;;;;;;;;;;5073796;28;20115;-78
2021/12/04 17:24:16;;;;;;;30.67;15.20;;;;;;;;;;5072456;28;20053;-78
2021/12/04 17:26:43;;;;;;;30.15;15.18;;;;;;;;;;5073823;28;20063;-80
2021/12/04 17:29:11;;;;;;;27.55;14.80;;;;;;;;;;5073379;28;20044;-80
2021/12/04 17:31:39;;;;;;;21.85;12.70;;;5.70;99.90;;;;;;5072637;28;20497;-80
2021/12/04 17:34:06;;;;;;;26.00;14.32;;;5.70;99.90;;;;;;5050368;28;20052;-80
2021/12/04 17:36:32;;;;;;;22.58;13.10;;;5.60;99.90;;;;;;5072941;28;20503;-82
2021/12/04 17:38:59;;;;;;;23.88;14.38;;;5.60;99.90;;;;;;5072915;28;20509;-81
2021/12/04 17:41:30;;;;;;;28.00;16.02;;;5.60;99.90;;;;;;5074242;28;20044;-83
2021/12/04 17:44:09;;;;;;;29.42;16.30;;;5.60;99.90;;;;;;5056849;28;20052;-81
2021/12/04 17:46:35;;;;;;;29.08;16.40;;;5.60;99.90;;;;;;5073529;28;20110;-82
2021/12/04 17:49:04;;;;;;;30.33;16.38;;;5.60;99.90;;;;;;5087554;28;20097;-83
2021/12/04 17:51:31;;;;;;;27.30;16.20;;;5.60;99.90;;;;;;5076504;28;20055;-83
2021/12/04 17:54:00;;;;;;;22.17;12.75;;;5.60;99.90;;;;;;5073790;28;20080;-82